sensor_id;sensor_type;location;lat;lon;timestamp;P1;durP1;ratioP1;P2;durP2;ratioP2
21743;SDS011;11034;48.556;9.342;2022-08-18T00:01:07;8.43;;;7.60;;
21743;SDS011;11034;48.556;9.342;2022-08-18T00:03:41;6.97;;;6.28;;
21743;SDS011;11034;48.556;9.342;2022-08-18T00:06:23;7.18;;;6.45;;
21743;SDS011;11034;48.556;9.342;2022-08-18T00:08:54;8.63;;;6.07;;
21743;SDS011;11034;48.556;9.342;2022-08-18T00:11:22;6.40;;;5.55;;
21743;SDS011;11034;48.556;9.342;2022-08-18T00:13:50;6.53;;;5.78;;
21743;SDS011;11034;48.556;9.342;2022-08-18T00:16:19;6.95;;;6.25;;
21743;SDS011;11034;48.556;9.342;2022-08-18T00:18:48;6.50;;;5.90;;
21743;SDS011;11034;48.556;9.342;2022-08-18T00:21:16;6.80;;;6.10;;
21743;SDS011;11034;48.556;9.342;2022-08-18T00:23:45;6.95;;;6.28;;
21743;SDS011;11034;48.556;9.342;2022-08-18T00:26:13;8.57;;;6.50;;
21743;SDS011;11034;48.556;9.342;2022-08-18T00:28:41;6.80;;;6.10;;
21743;SDS011;11034;48.556;9.342;2022-08-18T00:31:09;6.15;;;5.55;;
21743;SDS011;11034;48.556;9.342;2022-08-18T00:33:37;7.30;;;6.60;;
21743;SDS011;11034;48.556;9.342;2022-08-18T00:36:07;7.68;;;6.97;;
21743;SDS011;11034;48.556;9.342;2022-08-18T00:38:36;9.43;;;7.53;;
21743;SDS011;11034;48.556;9.342;2022-08-18T00:41:04;7.90;;;7.15;;
21743;SDS011;11034;48.556;9.342;2022-08-18T00:43:34;10.32;;;7.90;;
21743;SDS011;11034;48.556;9.342;2022-08-18T00:46:06;7.50;;;6.75;;
21743;SDS011;11034;48.556;9.342;2022-08-18T00:48:38;8.63;;;7.30;;
21743;SDS011;11034;48.556;9.342;2022-08-18T00:51:16;8.30;;;7.47;;
21743;SDS011;11034;48.556;9.342;2022-08-18T00:53:48;8.13;;;7.00;;
21743;SDS011;11034;48.556;9.342;2022-08-18T00:56:21;8.05;;;7.28;;
21743;SDS011;11034;48.556;9.342;2022-08-18T00:58:52;8.23;;;7.43;;
21743;SDS011;11034;48.556;9.342;2022-08-18T01:01:25;8.40;;;7.32;;
21743;SDS011;11034;48.556;9.342;2022-08-18T01:03:57;9.82;;;7.78;;
21743;SDS011;11034;48.556;9.342;2022-08-18T01:06:32;8.45;;;7.65;;
21743;SDS011;11034;48.556;9.342;2022-08-18T01:09:04;9.13;;;6.97;;
21743;SDS011;11034;48.556;9.342;2022-08-18T01:11:33;8.75;;;7.65;;
21743;SDS011;11034;48.556;9.342;2022-08-18T01:14:04;8.75;;;7.68;;
21743;SDS011;11034;48.556;9.342;2022-08-18T01:16:33;7.70;;;6.75;;
21743;SDS011;11034;48.556;9.342;2022-08-18T01:19:22;9.07;;;8.07;;
21743;SDS011;11034;48.556;9.342;2022-08-18T01:22:12;10.85;;;7.85;;
21743;SDS011;11034;48.556;9.342;2022-08-18T01:24:46;9.05;;;7.95;;
21743;SDS011;11034;48.556;9.342;2022-08-18T01:27:35;9.90;;;8.88;;
21743;SDS011;11034;48.556;9.342;2022-08-18T01:30:06;10.80;;;8.93;;
21743;SDS011;11034;48.556;9.342;2022-08-18T01:32:37;10.98;;;9.57;;
21743;SDS011;11034;48.556;9.342;2022-08-18T01:35:06;11.85;;;10.50;;
21743;SDS011;11034;48.556;9.342;2022-08-18T01:37:36;15.30;;;11.43;;
21743;SDS011;11034;48.556;9.342;2022-08-18T01:40:09;12.52;;;11.32;;
21743;SDS011;11034;48.556;9.342;2022-08-18T01:42:58;13.32;;;10.55;;
21743;SDS011;11034;48.556;9.342;2022-08-18T01:45:30;12.88;;;11.55;;
21743;SDS011;11034;48.556;9.342;2022-08-18T01:47:59;12.18;;;9.27;;
21743;SDS011;11034;48.556;9.342;2022-08-18T01:50:30;10.70;;;9.60;;
21743;SDS011;11034;48.556;9.342;2022-08-18T01:52:59;10.80;;;9.50;;
21743;SDS011;11034;48.556;9.342;2022-08-18T01:55:29;9.68;;;8.70;;
21743;SDS011;11034;48.556;9.342;2022-08-18T01:57:57;12.02;;;10.15;;
21743;SDS011;11034;48.556;9.342;2022-08-18T02:00:26;10.98;;;9.88;;
21743;SDS011;11034;48.556;9.342;2022-08-18T02:02:56;13.00;;;10.02;;
21743;SDS011;11034;48.556;9.342;2022-08-18T02:05:29;11.65;;;10.50;;
21743;SDS011;11034;48.556;9.342;2022-08-18T02:08:00;12.80;;;10.55;;
21743;SDS011;11034;48.556;9.342;2022-08-18T02:10:30;12.40;;;10.68;;
21743;SDS011;11034;48.556;9.342;2022-08-18T02:12:58;12.52;;;9.48;;
21743;SDS011;11034;48.556;9.342;2022-08-18T02:15:27;11.20;;;10.07;;
21743;SDS011;11034;48.556;9.342;2022-08-18T02:17:55;10.82;;;9.80;;
21743;SDS011;11034;48.556;9.342;2022-08-18T02:20:23;11.20;;;10.00;;
21743;SDS011;11034;48.556;9.342;2022-08-18T02:22:51;11.25;;;9.63;;
21743;SDS011;11034;48.556;9.342;2022-08-18T02:25:20;10.55;;;9.48;;
21743;SDS011;11034;48.556;9.342;2022-08-18T02:27:49;10.02;;;9.02;;
21743;SDS011;11034;48.556;9.342;2022-08-18T02:30:18;10.57;;;9.38;;
21743;SDS011;11034;48.556;9.342;2022-08-18T02:32:47;10.43;;;8.73;;
21743;SDS011;11034;48.556;9.342;2022-08-18T02:35:15;12.93;;;9.38;;
21743;SDS011;11034;48.556;9.342;2022-08-18T02:37:43;10.88;;;9.10;;
21743;SDS011;11034;48.556;9.342;2022-08-18T02:40:13;11.95;;;9.27;;
21743;SDS011;11034;48.556;9.342;2022-08-18T02:42:42;11.32;;;10.10;;
21743;SDS011;11034;48.556;9.342;2022-08-18T02:45:13;14.20;;;10.25;;
21743;SDS011;11034;48.556;9.342;2022-08-18T02:47:42;11.18;;;10.00;;
21743;SDS011;11034;48.556;9.342;2022-08-18T02:50:11;12.45;;;10.95;;
21743;SDS011;11034;48.556;9.342;2022-08-18T02:52:41;11.93;;;10.43;;
21743;SDS011;11034;48.556;9.342;2022-08-18T02:55:09;11.95;;;10.63;;
21743;SDS011;11034;48.556;9.342;2022-08-18T02:57:40;11.48;;;10.05;;
21743;SDS011;11034;48.556;9.342;2022-08-18T03:00:09;12.95;;;11.65;;
21743;SDS011;11034;48.556;9.342;2022-08-18T03:02:43;13.55;;;11.15;;
21743;SDS011;11034;48.556;9.342;2022-08-18T03:05:12;13.95;;;11.30;;
21743;SDS011;11034;48.556;9.342;2022-08-18T03:07:41;12.32;;;11.02;;
21743;SDS011;11034;48.556;9.342;2022-08-18T03:10:09;13.93;;;12.57;;
21743;SDS011;11034;48.556;9.342;2022-08-18T03:12:59;15.73;;;13.95;;
21743;SDS011;11034;48.556;9.342;2022-08-18T03:15:27;16.42;;;14.10;;
21743;SDS011;11034;48.556;9.342;2022-08-18T03:17:59;15.45;;;13.80;;
21743;SDS011;11034;48.556;9.342;2022-08-18T03:20:27;19.40;;;15.93;;
21743;SDS011;11034;48.556;9.342;2022-08-18T03:22:57;19.00;;;17.00;;
21743;SDS011;11034;48.556;9.342;2022-08-18T03:25:35;18.88;;;16.70;;
21743;SDS011;11034;48.556;9.342;2022-08-18T03:28:09;19.80;;;17.38;;
21743;SDS011;11034;48.556;9.342;2022-08-18T03:30:37;20.00;;;18.05;;
21743;SDS011;11034;48.556;9.342;2022-08-18T03:33:07;22.00;;;17.73;;
21743;SDS011;11034;48.556;9.342;2022-08-18T03:35:35;17.33;;;15.15;;
21743;SDS011;11034;48.556;9.342;2022-08-18T03:38:03;17.33;;;15.52;;
21743;SDS011;11034;48.556;9.342;2022-08-18T03:40:32;19.27;;;17.08;;
21743;SDS011;11034;48.556;9.342;2022-08-18T03:43:01;16.95;;;13.73;;
21743;SDS011;11034;48.556;9.342;2022-08-18T03:45:51;13.25;;;11.95;;
21743;SDS011;11034;48.556;9.342;2022-08-18T03:48:21;13.57;;;11.82;;
21743;SDS011;11034;48.556;9.342;2022-08-18T03:50:50;12.63;;;9.90;;
21743;SDS011;11034;48.556;9.342;2022-08-18T03:53:18;10.77;;;9.68;;
21743;SDS011;11034;48.556;9.342;2022-08-18T03:55:47;10.68;;;8.73;;
21743;SDS011;11034;48.556;9.342;2022-08-18T03:58:15;10.43;;;8.40;;
21743;SDS011;11034;48.556;9.342;2022-08-18T04:00:43;9.10;;;8.20;;
21743;SDS011;11034;48.556;9.342;2022-08-18T04:03:11;11.77;;;9.52;;
21743;SDS011;11034;48.556;9.342;2022-08-18T04:05:40;9.93;;;8.88;;
21743;SDS011;11034;48.556;9.342;2022-08-18T04:08:09;11.38;;;9.05;;
21743;SDS011;11034;48.556;9.342;2022-08-18T04:10:38;10.52;;;9.43;;
21743;SDS011;11034;48.556;9.342;2022-08-18T04:13:07;10.65;;;9.43;;
21743;SDS011;11034;48.556;9.342;2022-08-18T04:15:36;12.18;;;10.80;;
21743;SDS011;11034;48.556;9.342;2022-08-18T04:18:04;17.48;;;11.82;;
21743;SDS011;11034;48.556;9.342;2022-08-18T04:20:34;12.93;;;11.63;;
21743;SDS011;11034;48.556;9.342;2022-08-18T04:23:03;12.73;;;11.15;;
21743;SDS011;11034;48.556;9.342;2022-08-18T04:25:32;12.35;;;10.55;;
21743;SDS011;11034;48.556;9.342;2022-08-18T04:28:00;13.23;;;10.02;;
21743;SDS011;11034;48.556;9.342;2022-08-18T04:30:29;11.27;;;10.07;;
21743;SDS011;11034;48.556;9.342;2022-08-18T04:32:59;12.82;;;10.95;;
21743;SDS011;11034;48.556;9.342;2022-08-18T04:35:31;12.95;;;11.50;;
21743;SDS011;11034;48.556;9.342;2022-08-18T04:37:59;12.13;;;10.82;;
21743;SDS011;11034;48.556;9.342;2022-08-18T04:40:29;12.55;;;11.25;;
21743;SDS011;11034;48.556;9.342;2022-08-18T04:42:59;12.43;;;11.15;;
21743;SDS011;11034;48.556;9.342;2022-08-18T04:45:28;11.70;;;10.30;;
21743;SDS011;11034;48.556;9.342;2022-08-18T04:47:58;13.98;;;10.55;;
21743;SDS011;11034;48.556;9.342;2022-08-18T04:50:26;11.43;;;10.27;;
21743;SDS011;11034;48.556;9.342;2022-08-18T04:52:54;11.50;;;10.30;;
21743;SDS011;11034;48.556;9.342;2022-08-18T04:55:45;11.48;;;10.27;;
21743;SDS011;11034;48.556;9.342;2022-08-18T04:58:14;15.30;;;12.80;;
21743;SDS011;11034;48.556;9.342;2022-08-18T05:00:44;15.02;;;11.93;;
21743;SDS011;11034;48.556;9.342;2022-08-18T05:03:12;13.40;;;11.95;;
21743;SDS011;11034;48.556;9.342;2022-08-18T05:05:40;13.20;;;11.75;;
21743;SDS011;11034;48.556;9.342;2022-08-18T05:08:09;14.40;;;11.65;;
21743;SDS011;11034;48.556;9.342;2022-08-18T05:10:37;11.23;;;10.23;;
21743;SDS011;11034;48.556;9.342;2022-08-18T05:13:07;11.45;;;10.13;;
21743;SDS011;11034;48.556;9.342;2022-08-18T05:15:35;13.52;;;10.77;;
21743;SDS011;11034;48.556;9.342;2022-08-18T05:18:27;11.85;;;10.55;;
21743;SDS011;11034;48.556;9.342;2022-08-18T05:20:57;12.52;;;9.95;;
21743;SDS011;11034;48.556;9.342;2022-08-18T05:23:27;10.60;;;9.23;;
21743;SDS011;11034;48.556;9.342;2022-08-18T05:25:56;12.18;;;9.43;;
21743;SDS011;11034;48.556;9.342;2022-08-18T05:28:27;11.35;;;9.10;;
21743;SDS011;11034;48.556;9.342;2022-08-18T05:30:55;11.02;;;8.93;;
21743;SDS011;11034;48.556;9.342;2022-08-18T05:33:25;10.35;;;8.48;;
21743;SDS011;11034;48.556;9.342;2022-08-18T05:36:03;9.52;;;8.57;;
21743;SDS011;11034;48.556;9.342;2022-08-18T05:38:40;8.95;;;8.05;;
21743;SDS011;11034;48.556;9.342;2022-08-18T05:41:21;10.80;;;8.65;;
21743;SDS011;11034;48.556;9.342;2022-08-18T05:43:55;8.23;;;7.32;;
21743;SDS011;11034;48.556;9.342;2022-08-18T05:46:25;10.23;;;7.20;;
21743;SDS011;11034;48.556;9.342;2022-08-18T05:49:05;8.48;;;7.03;;
21743;SDS011;11034;48.556;9.342;2022-08-18T05:51:35;8.40;;;6.00;;
21743;SDS011;11034;48.556;9.342;2022-08-18T05:54:08;7.95;;;6.65;;
21743;SDS011;11034;48.556;9.342;2022-08-18T05:56:54;8.75;;;6.80;;
21743;SDS011;11034;48.556;9.342;2022-08-18T05:59:33;8.35;;;6.60;;
21743;SDS011;11034;48.556;9.342;2022-08-18T06:02:06;7.07;;;5.45;;
21743;SDS011;11034;48.556;9.342;2022-08-18T06:04:43;6.70;;;5.82;;
21743;SDS011;11034;48.556;9.342;2022-08-18T06:07:17;8.10;;;6.22;;
21743;SDS011;11034;48.556;9.342;2022-08-18T06:09:59;6.82;;;6.13;;
21743;SDS011;11034;48.556;9.342;2022-08-18T06:12:29;9.07;;;6.15;;
21743;SDS011;11034;48.556;9.342;2022-08-18T06:15:07;6.32;;;5.53;;
21743;SDS011;11034;48.556;9.342;2022-08-18T06:20:44;6.72;;;5.47;;
21743;SDS011;11034;48.556;9.342;2022-08-18T06:23:30;6.30;;;5.70;;
21743;SDS011;11034;48.556;9.342;2022-08-18T06:26:08;7.95;;;5.82;;
21743;SDS011;11034;48.556;9.342;2022-08-18T06:28:49;7.35;;;6.65;;
21743;SDS011;11034;48.556;9.342;2022-08-18T06:31:28;7.05;;;6.03;;
21743;SDS011;11034;48.556;9.342;2022-08-18T06:34:08;7.05;;;6.45;;
21743;SDS011;11034;48.556;9.342;2022-08-18T06:36:46;7.85;;;7.05;;
21743;SDS011;11034;48.556;9.342;2022-08-18T06:39:22;11.00;;;7.00;;
21743;SDS011;11034;48.556;9.342;2022-08-18T06:41:55;7.57;;;6.38;;
21743;SDS011;11034;48.556;9.342;2022-08-18T06:44:25;8.05;;;7.25;;
21743;SDS011;11034;48.556;9.342;2022-08-18T06:47:02;8.90;;;7.03;;
21743;SDS011;11034;48.556;9.342;2022-08-18T06:49:42;7.43;;;6.63;;
21743;SDS011;11034;48.556;9.342;2022-08-18T06:52:20;9.38;;;7.05;;
21743;SDS011;11034;48.556;9.342;2022-08-18T06:54:51;8.27;;;6.97;;
21743;SDS011;11034;48.556;9.342;2022-08-18T06:57:22;8.25;;;6.55;;
21743;SDS011;11034;48.556;9.342;2022-08-18T06:59:54;7.57;;;6.75;;
21743;SDS011;11034;48.556;9.342;2022-08-18T07:05:19;7.57;;;6.85;;
21743;SDS011;11034;48.556;9.342;2022-08-18T07:10:44;6.93;;;6.22;;
21743;SDS011;11034;48.556;9.342;2022-08-18T07:13:15;7.95;;;6.07;;
21743;SDS011;11034;48.556;9.342;2022-08-18T07:15:48;6.55;;;5.82;;
21743;SDS011;11034;48.556;9.342;2022-08-18T07:18:23;7.53;;;5.68;;
21743;SDS011;11034;48.556;9.342;2022-08-18T07:20:54;6.07;;;5.00;;
21743;SDS011;11034;48.556;9.342;2022-08-18T07:23:29;5.65;;;5.00;;
21743;SDS011;11034;48.556;9.342;2022-08-18T07:26:04;5.25;;;4.75;;
21743;SDS011;11034;48.556;9.342;2022-08-18T07:28:36;5.80;;;4.75;;
21743;SDS011;11034;48.556;9.342;2022-08-18T07:31:29;6.22;;;5.32;;
21743;SDS011;11034;48.556;9.342;2022-08-18T07:34:03;8.15;;;7.35;;
21743;SDS011;11034;48.556;9.342;2022-08-18T07:36:39;8.68;;;7.72;;
21743;SDS011;11034;48.556;9.342;2022-08-18T07:39:14;11.02;;;8.50;;
21743;SDS011;11034;48.556;9.342;2022-08-18T07:41:49;10.15;;;9.02;;
21743;SDS011;11034;48.556;9.342;2022-08-18T07:44:24;11.38;;;9.32;;
21743;SDS011;11034;48.556;9.342;2022-08-18T07:47:02;10.10;;;9.10;;
21743;SDS011;11034;48.556;9.342;2022-08-18T07:49:35;11.10;;;9.90;;
21743;SDS011;11034;48.556;9.342;2022-08-18T07:52:24;10.38;;;9.38;;
21743;SDS011;11034;48.556;9.342;2022-08-18T07:55:15;9.85;;;8.85;;
21743;SDS011;11034;48.556;9.342;2022-08-18T07:57:54;10.15;;;9.05;;
21743;SDS011;11034;48.556;9.342;2022-08-18T08:00:30;9.98;;;8.98;;
21743;SDS011;11034;48.556;9.342;2022-08-18T08:03:28;10.05;;;8.70;;
21743;SDS011;11034;48.556;9.342;2022-08-18T08:06:03;9.93;;;8.98;;
21743;SDS011;11034;48.556;9.342;2022-08-18T08:08:39;11.10;;;9.35;;
21743;SDS011;11034;48.556;9.342;2022-08-18T08:11:24;10.48;;;9.38;;
21743;SDS011;11034;48.556;9.342;2022-08-18T08:14:14;12.50;;;10.05;;
21743;SDS011;11034;48.556;9.342;2022-08-18T08:16:56;10.70;;;9.45;;
21743;SDS011;11034;48.556;9.342;2022-08-18T08:19:43;10.15;;;9.15;;
21743;SDS011;11034;48.556;9.342;2022-08-18T08:22:32;11.25;;;9.77;;
21743;SDS011;11034;48.556;9.342;2022-08-18T08:25:07;11.98;;;10.73;;
21743;SDS011;11034;48.556;9.342;2022-08-18T08:28:05;11.48;;;9.10;;
21743;SDS011;11034;48.556;9.342;2022-08-18T08:30:43;9.90;;;8.65;;
21743;SDS011;11034;48.556;9.342;2022-08-18T08:33:19;10.18;;;8.35;;
21743;SDS011;11034;48.556;9.342;2022-08-18T08:35:51;7.13;;;5.78;;
21743;SDS011;11034;48.556;9.342;2022-08-18T08:38:29;8.55;;;5.70;;
21743;SDS011;11034;48.556;9.342;2022-08-18T08:41:10;6.30;;;5.68;;
21743;SDS011;11034;48.556;9.342;2022-08-18T08:43:48;5.22;;;4.68;;
21743;SDS011;11034;48.556;9.342;2022-08-18T08:46:21;5.75;;;5.07;;
21743;SDS011;11034;48.556;9.342;2022-08-18T08:49:00;6.03;;;5.43;;
21743;SDS011;11034;48.556;9.342;2022-08-18T08:51:33;5.13;;;4.60;;
21743;SDS011;11034;48.556;9.342;2022-08-18T08:54:09;5.53;;;4.63;;
21743;SDS011;11034;48.556;9.342;2022-08-18T08:56:43;5.63;;;5.03;;
21743;SDS011;11034;48.556;9.342;2022-08-18T08:59:14;5.70;;;5.20;;
21743;SDS011;11034;48.556;9.342;2022-08-18T09:01:45;5.60;;;4.63;;
21743;SDS011;11034;48.556;9.342;2022-08-18T09:04:24;5.40;;;4.90;;
21743;SDS011;11034;48.556;9.342;2022-08-18T09:07:07;6.07;;;4.72;;
21743;SDS011;11034;48.556;9.342;2022-08-18T09:09:52;5.82;;;5.10;;
21743;SDS011;11034;48.556;9.342;2022-08-18T09:12:42;5.85;;;4.97;;
21743;SDS011;11034;48.556;9.342;2022-08-18T09:15:24;5.80;;;5.20;;
21743;SDS011;11034;48.556;9.342;2022-08-18T09:18:09;5.47;;;4.97;;
21743;SDS011;11034;48.556;9.342;2022-08-18T09:20:50;5.50;;;4.88;;
21743;SDS011;11034;48.556;9.342;2022-08-18T09:23:29;5.45;;;4.95;;
21743;SDS011;11034;48.556;9.342;2022-08-18T09:28:55;5.93;;;5.32;;
21743;SDS011;11034;48.556;9.342;2022-08-18T09:31:37;6.03;;;4.75;;
21743;SDS011;11034;48.556;9.342;2022-08-18T09:34:10;5.57;;;4.93;;
21743;SDS011;11034;48.556;9.342;2022-08-18T09:36:56;5.85;;;4.72;;
21743;SDS011;11034;48.556;9.342;2022-08-18T09:39:33;6.20;;;4.90;;
21743;SDS011;11034;48.556;9.342;2022-08-18T09:42:27;5.97;;;5.38;;
21743;SDS011;11034;48.556;9.342;2022-08-18T09:48:27;8.85;;;7.45;;
21743;SDS011;11034;48.556;9.342;2022-08-18T09:54:08;8.13;;;7.28;;
21743;SDS011;11034;48.556;9.342;2022-08-18T10:03:03;7.45;;;6.60;;
21743;SDS011;11034;48.556;9.342;2022-08-18T10:05:40;8.27;;;6.70;;
21743;SDS011;11034;48.556;9.342;2022-08-18T10:08:52;6.93;;;6.28;;
21743;SDS011;11034;48.556;9.342;2022-08-18T10:11:49;8.23;;;7.32;;
21743;SDS011;11034;48.556;9.342;2022-08-18T10:20:55;6.97;;;6.28;;
21743;SDS011;11034;48.556;9.342;2022-08-18T10:23:49;8.98;;;5.80;;
21743;SDS011;11034;48.556;9.342;2022-08-18T10:29:58;7.80;;;7.00;;
21743;SDS011;11034;48.556;9.342;2022-08-18T10:32:39;12.65;;;7.55;;
21743;SDS011;11034;48.556;9.342;2022-08-18T10:38:41;8.55;;;7.63;;
21743;SDS011;11034;48.556;9.342;2022-08-18T10:41:19;10.02;;;8.85;;
21743;SDS011;11034;48.556;9.342;2022-08-18T10:43:56;10.27;;;8.32;;
21743;SDS011;11034;48.556;9.342;2022-08-18T10:46:27;10.32;;;8.50;;
21743;SDS011;11034;48.556;9.342;2022-08-18T10:49:03;11.93;;;8.70;;
21743;SDS011;11034;48.556;9.342;2022-08-18T10:51:54;9.85;;;8.85;;
21743;SDS011;11034;48.556;9.342;2022-08-18T10:54:56;11.60;;;9.45;;
21743;SDS011;11034;48.556;9.342;2022-08-18T10:57:45;9.82;;;8.23;;
21743;SDS011;11034;48.556;9.342;2022-08-18T11:00:40;10.02;;;9.00;;
21743;SDS011;11034;48.556;9.342;2022-08-18T11:06:19;13.18;;;10.18;;
21743;SDS011;11034;48.556;9.342;2022-08-18T11:08:52;12.43;;;10.40;;
21743;SDS011;11034;48.556;9.342;2022-08-18T11:11:43;13.35;;;11.63;;
21743;SDS011;11034;48.556;9.342;2022-08-18T11:14:42;14.05;;;11.35;;
21743;SDS011;11034;48.556;9.342;2022-08-18T11:17:50;14.38;;;12.88;;
21743;SDS011;11034;48.556;9.342;2022-08-18T11:20:30;13.90;;;12.50;;
21743;SDS011;11034;48.556;9.342;2022-08-18T11:23:01;15.27;;;13.15;;
21743;SDS011;11034;48.556;9.342;2022-08-18T11:25:33;15.57;;;13.98;;
21743;SDS011;11034;48.556;9.342;2022-08-18T11:28:10;15.88;;;14.18;;
21743;SDS011;11034;48.556;9.342;2022-08-18T11:30:44;18.27;;;14.40;;
21743;SDS011;11034;48.556;9.342;2022-08-18T11:33:16;17.50;;;13.23;;
21743;SDS011;11034;48.556;9.342;2022-08-18T11:36:06;14.05;;;11.88;;
21743;SDS011;11034;48.556;9.342;2022-08-18T11:38:36;13.20;;;11.80;;
21743;SDS011;11034;48.556;9.342;2022-08-18T11:41:10;16.88;;;11.98;;
21743;SDS011;11034;48.556;9.342;2022-08-18T11:43:45;14.95;;;13.45;;
21743;SDS011;11034;48.556;9.342;2022-08-18T11:46:20;12.57;;;10.48;;
21743;SDS011;11034;48.556;9.342;2022-08-18T11:48:55;12.93;;;11.27;;
21743;SDS011;11034;48.556;9.342;2022-08-18T11:51:25;13.60;;;12.20;;
21743;SDS011;11034;48.556;9.342;2022-08-18T11:53:56;14.63;;;11.88;;
21743;SDS011;11034;48.556;9.342;2022-08-18T11:56:27;14.13;;;11.43;;
21743;SDS011;11034;48.556;9.342;2022-08-18T11:59:05;14.43;;;11.48;;
21743;SDS011;11034;48.556;9.342;2022-08-18T12:01:38;11.57;;;10.48;;
21743;SDS011;11034;48.556;9.342;2022-08-18T12:04:20;14.60;;;13.10;;
21743;SDS011;11034;48.556;9.342;2022-08-18T12:06:56;11.55;;;9.95;;
21743;SDS011;11034;48.556;9.342;2022-08-18T12:09:34;14.10;;;12.60;;
21743;SDS011;11034;48.556;9.342;2022-08-18T12:12:26;14.05;;;12.52;;
21743;SDS011;11034;48.556;9.342;2022-08-18T12:15:04;13.02;;;11.30;;
21743;SDS011;11034;48.556;9.342;2022-08-18T12:18:09;11.68;;;9.02;;
21743;SDS011;11034;48.556;9.342;2022-08-18T12:20:54;10.38;;;8.85;;
21743;SDS011;11034;48.556;9.342;2022-08-18T12:23:23;12.88;;;9.70;;
21743;SDS011;11034;48.556;9.342;2022-08-18T12:25:51;11.25;;;8.82;;
21743;SDS011;11034;48.556;9.342;2022-08-18T12:28:20;11.38;;;8.55;;
21743;SDS011;11034;48.556;9.342;2022-08-18T12:30:55;14.82;;;9.35;;
21743;SDS011;11034;48.556;9.342;2022-08-18T12:33:23;11.90;;;10.60;;
21743;SDS011;11034;48.556;9.342;2022-08-18T12:36:11;10.70;;;9.48;;
21743;SDS011;11034;48.556;9.342;2022-08-18T12:38:42;13.18;;;9.30;;
21743;SDS011;11034;48.556;9.342;2022-08-18T12:41:31;12.50;;;11.20;;
21743;SDS011;11034;48.556;9.342;2022-08-18T12:43:59;11.48;;;10.18;;
21743;SDS011;11034;48.556;9.342;2022-08-18T12:46:29;11.95;;;9.13;;
21743;SDS011;11034;48.556;9.342;2022-08-18T12:48:58;10.00;;;8.65;;
21743;SDS011;11034;48.556;9.342;2022-08-18T12:51:30;11.27;;;8.52;;
21743;SDS011;11034;48.556;9.342;2022-08-18T12:54:00;9.43;;;8.52;;
21743;SDS011;11034;48.556;9.342;2022-08-18T12:56:35;10.23;;;9.23;;
21743;SDS011;11034;48.556;9.342;2022-08-18T12:59:04;11.48;;;9.38;;
21743;SDS011;11034;48.556;9.342;2022-08-18T13:01:36;9.65;;;8.75;;
21743;SDS011;11034;48.556;9.342;2022-08-18T13:04:07;10.73;;;9.30;;
21743;SDS011;11034;48.556;9.342;2022-08-18T13:06:43;12.25;;;8.52;;
21743;SDS011;11034;48.556;9.342;2022-08-18T13:09:27;13.85;;;9.20;;
21743;SDS011;11034;48.556;9.342;2022-08-18T13:12:14;10.68;;;9.05;;
21743;SDS011;11034;48.556;9.342;2022-08-18T13:14:44;10.77;;;9.77;;
21743;SDS011;11034;48.556;9.342;2022-08-18T13:17:15;10.40;;;9.18;;
21743;SDS011;11034;48.556;9.342;2022-08-18T13:19:59;14.52;;;10.73;;
21743;SDS011;11034;48.556;9.342;2022-08-18T13:22:29;11.30;;;9.05;;
21743;SDS011;11034;48.556;9.342;2022-08-18T13:24:59;11.35;;;9.73;;
21743;SDS011;11034;48.556;9.342;2022-08-18T13:27:29;11.30;;;10.02;;
21743;SDS011;11034;48.556;9.342;2022-08-18T13:30:01;9.80;;;8.88;;
21743;SDS011;11034;48.556;9.342;2022-08-18T13:32:52;11.98;;;9.95;;
21743;SDS011;11034;48.556;9.342;2022-08-18T13:35:25;13.77;;;10.10;;
21743;SDS011;11034;48.556;9.342;2022-08-18T13:38:00;11.95;;;9.52;;
21743;SDS011;11034;48.556;9.342;2022-08-18T13:40:44;12.07;;;9.65;;
21743;SDS011;11034;48.556;9.342;2022-08-18T13:43:13;14.65;;;10.18;;
21743;SDS011;11034;48.556;9.342;2022-08-18T13:45:43;10.13;;;8.77;;
21743;SDS011;11034;48.556;9.342;2022-08-18T13:48:20;10.02;;;8.80;;
21743;SDS011;11034;48.556;9.342;2022-08-18T13:50:49;10.25;;;9.05;;
21743;SDS011;11034;48.556;9.342;2022-08-18T13:53:21;10.00;;;9.00;;
21743;SDS011;11034;48.556;9.342;2022-08-18T13:55:52;10.18;;;9.18;;
21743;SDS011;11034;48.556;9.342;2022-08-18T13:58:21;11.65;;;8.70;;
21743;SDS011;11034;48.556;9.342;2022-08-18T14:00:54;8.85;;;8.02;;
21743;SDS011;11034;48.556;9.342;2022-08-18T14:03:46;11.00;;;8.27;;
21743;SDS011;11034;48.556;9.342;2022-08-18T14:06:15;9.98;;;7.93;;
21743;SDS011;11034;48.556;9.342;2022-08-18T14:08:49;9.32;;;7.38;;
21743;SDS011;11034;48.556;9.342;2022-08-18T14:11:18;9.27;;;7.60;;
21743;SDS011;11034;48.556;9.342;2022-08-18T14:13:51;9.55;;;8.63;;
21743;SDS011;11034;48.556;9.342;2022-08-18T14:16:20;10.50;;;8.07;;
21743;SDS011;11034;48.556;9.342;2022-08-18T14:18:53;9.15;;;8.13;;
21743;SDS011;11034;48.556;9.342;2022-08-18T14:21:40;9.18;;;8.23;;
21743;SDS011;11034;48.556;9.342;2022-08-18T14:24:28;10.18;;;7.93;;
21743;SDS011;11034;48.556;9.342;2022-08-18T14:27:15;9.55;;;8.30;;
21743;SDS011;11034;48.556;9.342;2022-08-18T14:29:43;9.35;;;7.88;;
21743;SDS011;11034;48.556;9.342;2022-08-18T14:32:15;10.05;;;7.90;;
21743;SDS011;11034;48.556;9.342;2022-08-18T14:34:56;11.88;;;8.63;;
21743;SDS011;11034;48.556;9.342;2022-08-18T14:37:45;9.60;;;8.43;;
21743;SDS011;11034;48.556;9.342;2022-08-18T14:40:16;9.20;;;8.25;;
21743;SDS011;11034;48.556;9.342;2022-08-18T14:42:45;8.45;;;7.40;;
21743;SDS011;11034;48.556;9.342;2022-08-18T14:45:21;9.70;;;7.72;;
21743;SDS011;11034;48.556;9.342;2022-08-18T14:48:00;9.27;;;7.60;;
21743;SDS011;11034;48.556;9.342;2022-08-18T14:50:34;10.35;;;8.75;;
21743;SDS011;11034;48.556;9.342;2022-08-18T14:53:03;7.70;;;6.95;;
21743;SDS011;11034;48.556;9.342;2022-08-18T14:55:32;8.48;;;7.65;;
21743;SDS011;11034;48.556;9.342;2022-08-18T14:58:01;8.82;;;7.50;;
21743;SDS011;11034;48.556;9.342;2022-08-18T15:00:32;9.10;;;7.60;;
21743;SDS011;11034;48.556;9.342;2022-08-18T15:03:19;8.63;;;7.72;;
21743;SDS011;11034;48.556;9.342;2022-08-18T15:05:58;8.40;;;7.57;;
21743;SDS011;11034;48.556;9.342;2022-08-18T15:08:30;9.07;;;8.00;;
21743;SDS011;11034;48.556;9.342;2022-08-18T15:11:01;11.00;;;7.80;;
21743;SDS011;11034;48.556;9.342;2022-08-18T15:13:37;8.20;;;7.40;;
21743;SDS011;11034;48.556;9.342;2022-08-18T15:16:07;9.13;;;7.45;;
21743;SDS011;11034;48.556;9.342;2022-08-18T15:18:39;7.45;;;6.60;;
21743;SDS011;11034;48.556;9.342;2022-08-18T15:21:08;7.88;;;6.82;;
21743;SDS011;11034;48.556;9.342;2022-08-18T15:24:03;8.27;;;7.22;;
21743;SDS011;11034;48.556;9.342;2022-08-18T15:26:50;10.38;;;7.32;;
21743;SDS011;11034;48.556;9.342;2022-08-18T15:29:23;7.78;;;6.97;;
21743;SDS011;11034;48.556;9.342;2022-08-18T15:31:55;9.13;;;7.75;;
21743;SDS011;11034;48.556;9.342;2022-08-18T15:34:31;10.50;;;8.45;;
21743;SDS011;11034;48.556;9.342;2022-08-18T15:37:14;9.57;;;8.43;;
21743;SDS011;11034;48.556;9.342;2022-08-18T15:39:45;9.40;;;7.72;;
21743;SDS011;11034;48.556;9.342;2022-08-18T15:42:21;9.55;;;8.55;;
21743;SDS011;11034;48.556;9.342;2022-08-18T15:44:50;9.68;;;8.40;;
21743;SDS011;11034;48.556;9.342;2022-08-18T15:47:19;9.38;;;8.45;;
21743;SDS011;11034;48.556;9.342;2022-08-18T15:49:50;9.15;;;8.18;;
21743;SDS011;11034;48.556;9.342;2022-08-18T15:52:21;10.30;;;8.00;;
21743;SDS011;11034;48.556;9.342;2022-08-18T15:54:51;9.38;;;7.88;;
21743;SDS011;11034;48.556;9.342;2022-08-18T15:57:27;8.27;;;7.47;;
21743;SDS011;11034;48.556;9.342;2022-08-18T16:00:06;8.90;;;8.00;;
21743;SDS011;11034;48.556;9.342;2022-08-18T16:02:38;10.23;;;8.27;;